Time;durP1;ratioP1;P1;durP2;ratioP2;P2;SDS_P1;SDS_P2;PMS_P1;PMS_P2;Temp;Humidity;BMP_temperature;BMP_pressure;BME280_temperature;BME280_humidity;BME280_pressure;Samples;Min_cycle;Max_cycle;Signal;HPM_P1;HPM_P2
2022/11/09 00:16:01;;;;;;;4.32;2.13;;;;;;;12.08;71.49;100323.91;5049787;22;20063;-66
2022/11/09 00:18:28;;;;;;;3.15;2.13;;;;;;;12.10;71.79;100319.34;5048346;28;20155;-65
2022/11/09 00:25:15;;;;;;;4.05;2.30;;;;;;;12.03;71.85;100315.47;5046955;28;20039;-64
2022/11/09 00:32:07;;;;;;;4.63;2.40;;;;;;;12.10;71.68;100316.72;5045669;28;20060;-63
2022/11/09 00:34:35;;;;;;;15.48;2.80;;;;;;;12.07;71.44;100319.59;5051415;28;20180;-64
2022/11/09 00:37:02;;;;;;;4.43;2.17;;;;;;;12.06;71.54;100315.25;5048045;28;20461;-65
2022/11/09 00:52:21;;;;;;;3.60;2.17;;;;;;;12.12;71.39;100306.06;5048366;28;20098;-67
2022/11/09 00:54:48;;;;;;;3.72;1.70;;;;;;;12.15;71.27;100306.69;5046875;28;20092;-65
2022/11/09 00:57:15;;;;;;;3.95;1.80;;;;;;;12.17;70.75;100301.31;5046444;28;20510;-65
2022/11/09 00:59:43;;;;;;;5.45;2.60;;;;;;;12.14;71.08;100302.38;5044698;28;20060;-65
2022/11/09 01:02:10;;;;;;;4.07;2.35;;;;;;;12.16;71.19;100304.91;5045078;28;20400;-65
2022/11/09 01:04:37;;;;;;;3.83;2.20;;;;;;;12.14;70.90;100304.16;5044391;28;20064;-64
2022/11/09 01:07:06;;;;;;;6.20;2.25;;;;;;;12.16;70.97;100311.03;5049248;28;20080;-64
2022/11/09 01:36:12;;;;;;;3.45;2.20;;;;;;;12.08;70.98;100279.06;5040090;28;20059;-65
2022/11/09 01:38:39;;;;;;;;;;;;;;;12.07;71.03;100287.09;5042687;28;20543;-65
2022/11/09 01:41:07;;;;;;;3.83;1.92;;;;;;;12.03;70.79;100275.91;5045529;28;19920;-64
2022/11/09 01:43:34;;;;;;;9.32;2.45;;;;;;;12.06;70.55;100280.94;5045202;28;20445;-64
2022/11/09 01:54:55;;;;;;;4.32;2.53;;;;;;;11.94;71.38;100281.81;5048652;28;20128;-66
2022/11/09 02:31:55;;;;;;;7.00;2.60;;;;;;;11.71;71.65;100237.69;5045539;28;20221;-64
2022/11/09 02:34:23;;;;;;;2.35;1.48;;;;;;;11.73;71.71;100251.63;5051138;28;20148;-64
2022/11/09 02:41:02;;;;;;;6.93;2.20;;;;;;;11.69;71.73;100244.88;5049848;28;20106;-65
2022/11/09 02:43:30;;;;;;;3.55;2.28;;;;;;;11.68;71.95;100243.22;5050434;28;20045;-66
2022/11/09 02:54:36;;;;;;;3.75;1.98;;;;;;;11.60;72.09;100239.28;5051648;28;20040;-65
2022/11/09 02:57:03;;;;;;;3.42;2.40;;;;;;;11.56;72.33;100232.53;5051970;28;20112;-65
2022/11/09 03:08:10;;;;;;;3.58;2.20;;;;;;;11.51;72.52;100237.28;5054908;28;20063;-66
2022/11/09 03:10:37;;;;;;;3.90;2.40;;;;;;;11.50;72.62;100242.69;5053648;28;20063;-65
2022/11/09 03:13:04;;;;;;;3.67;2.03;;;;;;;11.52;72.37;100246.88;5048978;28;20132;-64
2022/11/09 03:33:18;;;;;;;3.22;2.20;;;;;;;11.54;72.24;100223.91;5045727;28;21028;-66
2022/11/09 03:35:46;;;;;;;3.83;2.20;;;;;;;11.52;72.54;100224.97;5036112;28;20059;-65
2022/11/09 03:38:13;;;;;;;3.08;2.15;;;;;;;11.52;72.75;100223.16;5033420;28;20051;-64
2022/11/09 03:40:40;;;;;;;5.68;2.17;;;;;;;11.49;72.63;100226.03;5032447;28;20128;-65
2022/11/09 03:47:20;;;;;;;6.45;2.08;;;;;;;11.51;72.82;100237.28;5049654;28;20052;-66
2022/11/09 03:49:47;;;;;;;4.05;1.88;;;;;;;11.49;73.08;100235.72;5049475;28;20044;-65
2022/11/09 03:56:34;;;;;;;4.75;2.10;;;;;;;11.50;72.98;100248.78;5048747;28;20055;-64
2022/11/09 03:59:01;;;;;;;2.75;1.98;;;;;;;11.50;72.99;100240.06;5046593;28;20455;-63
2022/11/09 04:05:48;;;;;;;4.63;2.13;;;;;;;11.50;72.70;100264.63;5048683;28;20051;-66
2022/11/09 04:08:15;;;;;;;3.60;2.00;;;;;;;11.54;72.91;100257.34;5049049;28;20079;-64
2022/11/09 04:10:42;;;;;;;4.25;1.98;;;;;;;11.55;72.66;100257.22;5048852;28;20041;-65
2022/11/09 04:13:09;;;;;;;3.03;1.65;;;;;;;11.56;72.42;100252.78;5041894;28;20048;-65
2022/11/09 04:15:37;;;;;;;5.60;1.95;;;;;;;11.59;72.77;100265.78;5044829;28;20152;-66
2022/11/09 04:34:54;;;;;;;4.25;2.40;;;;;;;11.59;73.71;100240.25;5043166;28;20155;-66
2022/11/09 04:37:21;;;;;;;3.92;2.17;;;;;;;11.60;73.95;100234.03;5027395;28;20087;-65
2022/11/09 04:39:48;;;;;;;3.17;2.30;;;;;;;11.63;74.31;100233.81;5047680;28;20091;-65
2022/11/09 04:42:16;;;;;;;4.50;1.90;;;;;;;11.60;74.96;100236.66;5047057;28;20148;-63
2022/11/09 04:44:43;;;;;;;3.53;2.28;;;;;;;11.61;75.47;100242.78;5046473;28;20051;-66
2022/11/09 04:47:10;;;;;;;3.92;2.30;;;;;;;11.63;75.13;100240.91;5046892;28;20056;-65
2022/11/09 04:49:37;;;;;;;6.28;2.10;;;;;;;11.61;75.39;100254.16;5050865;28;20048;-65
2022/11/09 05:40:35;;;;;;;6.45;2.80;;;;;;;11.57;80.73;100267.66;5044324;28;20056;-64
2022/11/09 06:22:57;;;;;;;6.55;2.53;;;;;;;11.77;83.48;100292.66;5021522;28;20119;-57
2022/11/09 06:25:31;;;;;;;4.78;2.63;;;;;;;11.80;83.36;100298.59;5017483;28;20130;-60
2022/11/09 06:27:58;;;;;;;4.55;2.70;;;;;;;11.80;83.32;100292.47;5013682;28;20734;-59
2022/11/09 06:30:25;;;;;;;4.43;2.95;;;;;;;11.83;83.41;100295.75;5016431;28;20128;-61
2022/11/09 06:32:59;;;;;;;3.88;2.35;;;;;;;11.82;83.29;100295.84;5021369;28;20491;-61
2022/11/09 06:35:27;;;;;;;5.30;2.25;;;;;;;11.83;83.61;100300.19;5015659;28;20073;-60
2022/11/09 06:37:58;;;;;;;5.63;2.55;;;;;;;11.83;83.37;100297.53;5023182;28;20049;-61
2022/11/09 06:40:25;;;;;;;4.03;2.35;;;;;;;11.82;83.47;100301.97;5015366;28;20132;-61
2022/11/09 06:42:55;;;;;;;9.43;2.75;;;;;;;11.85;83.78;100300.94;5013751;28;20064;-59
2022/11/09 06:45:22;;;;;;;2.90;2.38;;;;;;;11.82;83.85;100309.03;5011269;28;20050;-58
2022/11/09 06:47:49;;;;;;;4.72;2.67;;;;;;;11.81;84.16;100310.81;5015507;28;20053;-59
2022/11/09 06:54:36;;;;;;;4.63;3.10;;;;;;;11.89;83.07;100311.16;5034614;28;20100;-61
2022/11/09 06:57:03;;;;;;;7.07;3.13;;;;;;;11.86;83.07;100311.38;5019526;28;20070;-58
2022/11/09 06:59:30;;;;;;;6.28;2.92;;;;;;;11.83;83.69;100314.22;5019483;28;20048;-58
2022/11/09 07:01:58;;;;;;;5.22;3.05;;;;;;;11.86;83.20;100321.91;5013409;28;20225;-59
2022/11/09 07:04:27;;;;;;;4.47;2.70;;;;;;;11.86;83.75;100323.72;5019981;28;20037;-60
2022/11/09 07:06:55;;;;;;;5.25;2.45;;;;;;;11.86;83.45;100321.91;5008809;28;20053;-60
2022/11/09 07:09:22;;;;;;;6.35;2.70;;;;;;;11.89;83.90;100334.91;5019564;28;20103;-60
2022/11/09 07:11:49;;;;;;;7.72;3.10;;;;;;;11.93;84.05;100321.47;5034322;28;20057;-60
2022/11/09 07:14:16;;;;;;;6.07;3.22;;;;;;;11.91;83.64;100327.72;5037225;28;20063;-60
2022/11/09 07:16:43;;;;;;;5.18;2.83;;;;;;;11.86;84.19;100324.56;5034500;28;20057;-61
2022/11/09 07:19:10;;;;;;;4.35;2.70;;;;;;;11.87;84.64;100313.06;5030876;28;20053;-59
2022/11/09 07:21:37;;;;;;;3.80;2.60;;;;;;;11.86;85.75;100313.16;5023516;28;20078;-60
2022/11/09 07:24:05;;;;;;;7.25;2.70;;;;;;;11.84;85.90;100312.41;5038189;28;20136;-60
2022/11/09 07:26:32;;;;;;;5.53;2.95;;;;;;;11.84;86.22;100307.13;5046557;28;20159;-60
2022/11/09 07:28:59;;;;;;;8.60;2.92;;;;;;;11.86;86.38;100292.06;5032088;28;20510;-60
2022/11/09 07:31:28;;;;;;;8.40;2.80;;;;;;;11.84;86.92;100276.34;5028516;28;20057;-58
2022/11/09 07:33:57;;;;;;;6.75;2.92;;;;;;;11.84;86.43;100292.19;5034357;28;20461;-59
2022/11/09 07:36:24;;;;;;;5.25;2.63;;;;;;;11.83;86.88;100290.47;5033556;28;20144;-60
2022/11/09 07:38:51;;;;;;;5.60;2.72;;;;;;;11.86;87.10;100285.00;5037240;28;20513;-59
2022/11/09 07:41:18;;;;;;;9.38;4.07;;;;;;;11.86;87.99;100281.50;5039208;28;20506;-59
2022/11/09 07:43:45;;;;;;;7.07;2.85;;;;;;;11.84;88.23;100284.28;5036805;28;20144;-60
2022/11/09 07:46:12;;;;;;;5.28;2.60;;;;;;;11.84;88.65;100263.16;5044146;28;20434;-59
2022/11/09 07:48:39;;;;;;;5.80;3.00;;;;;;;11.76;89.74;100267.25;5038177;28;20544;-59
2022/11/09 07:51:07;;;;;;;8.68;2.83;;;;;;;11.73;89.93;100301.75;5041121;28;20140;-59
2022/11/09 07:53:34;;;;;;;6.45;2.80;;;;;;;11.68;90.09;100335.50;5039687;28;20095;-62
2022/11/09 07:56:02;;;;;;;9.57;3.70;;;;;;;11.65;91.59;100334.75;5023266;28;20144;-59
2022/11/09 07:58:30;;;;;;;4.95;2.42;;;;;;;11.57;92.05;100326.53;5040919;28;20073;-59
2022/11/09 08:00:57;;;;;;;6.95;3.50;;;;;;;11.58;92.26;100327.38;5038225;28;20530;-59
2022/11/09 08:03:25;;;;;;;6.70;3.03;;;;;;;11.51;93.60;100334.84;5040288;28;20132;-59
2022/11/09 08:05:52;;;;;;;9.57;3.63;;;;;;;11.55;93.23;100338.13;5037938;28;20088;-59
2022/11/09 08:08:19;;;;;;;4.55;2.80;;;;;;;11.57;92.97;100336.19;5028726;28;20466;-59
2022/11/09 08:10:50;;;;;;;8.10;3.53;;;;;;;11.58;93.37;100327.38;5036855;28;20048;-60
2022/11/09 08:13:19;;;;;;;6.28;2.95;;;;;;;11.51;94.98;100342.75;5032223;28;20585;-60
2022/11/09 08:15:47;;;;;;;5.18;3.42;;;;;;;11.40;95.99;100332.94;5028607;28;20096;-59
2022/11/09 08:18:17;;;;;;;6.10;3.60;;;;;;;11.43;95.37;100318.69;5037558;28;20067;-65
2022/11/09 08:20:45;;;;;;;6.75;3.70;;;;;;;11.52;94.56;100318.06;5036460;28;20041;-58
2022/11/09 08:23:14;;;;;;;11.90;3.35;;;;;;;11.52;94.20;100325.13;5034260;28;20056;-60
2022/11/09 08:25:41;;;;;;;9.00;4.20;;;;;;;11.50;95.15;100340.22;5039175;28;20056;-57
2022/11/09 08:28:09;;;;;;;8.32;3.03;;;;;;;11.53;94.60;100332.97;5036233;28;20145;-58
2022/11/09 08:30:44;;;;;;;6.78;3.10;;;;;;;11.56;94.71;100331.88;5041554;28;20056;-59
2022/11/09 08:33:11;;;;;;;6.68;3.42;;;;;;;11.58;94.17;100325.56;5042416;28;20052;-60
2022/11/09 08:35:39;;;;;;;6.13;3.83;;;;;;;11.65;94.07;100318.91;5044380;28;20047;-62
2022/11/09 08:38:06;;;;;;;6.28;3.75;;;;;;;11.58;95.69;100312.41;5036594;28;20049;-60
2022/11/09 08:40:33;;;;;;;5.47;3.72;;;;;;;11.50;95.62;100317.34;5038512;28;20131;-61
2022/11/09 08:43:06;;;;;;;5.82;3.25;;;;;;;11.52;96.09;100309.31;5043048;28;20048;-60
2022/11/09 08:45:36;;;;;;;6.00;3.58;;;;;;;11.55;95.81;100317.88;5034232;28;20057;-60
2022/11/09 08:48:03;;;;;;;6.68;3.67;;;;;;;11.59;95.90;100329.06;5037806;28;20520;-61
2022/11/09 08:50:32;;;;;;;6.18;3.20;;;;;;;11.57;96.15;100334.44;5037054;28;20053;-60
2022/11/09 08:53:00;;;;;;;6.07;3.58;;;;;;;11.58;96.01;100333.47;5034233;28;20144;-59
2022/11/09 08:55:27;;;;;;;5.15;3.63;;;;;;;11.63;95.27;100339.28;5032689;28;20049;-59
2022/11/09 08:57:56;;;;;;;8.40;3.55;;;;;;;11.58;96.99;100346.66;5029609;28;20056;-60
2022/11/09 09:00:24;;;;;;;8.65;3.83;;;;;;;11.59;96.47;100348.34;5041499;28;20136;-60
2022/11/09 09:02:51;;;;;;;7.10;3.55;;;;;;;11.64;96.28;100345.41;5035197;28;20052;-58
2022/11/09 09:05:19;;;;;;;6.28;3.78;;;;;;;11.66;96.13;100348.75;5034915;28;20124;-61
2022/11/09 09:07:46;;;;;;;6.05;3.80;;;;;;;11.59;96.92;100350.97;5031130;28;20175;-59
2022/11/09 09:10:13;;;;;;;7.65;3.85;;;;;;;11.62;96.76;100349.94;5037590;28;20079;-60
2022/11/09 09:12:41;;;;;;;9.13;3.63;;;;;;;11.63;97.55;100355.09;5040029;28;20416;-60
2022/11/09 09:15:08;;;;;;;5.55;3.78;;;;;;;11.68;96.42;100354.78;5027585;28;20047;-60
2022/11/09 09:17:35;;;;;;;9.02;4.15;;;;;;;11.68;97.10;100360.06;5040375;28;20127;-59
2022/11/09 09:20:03;;;;;;;7.20;4.30;;;;;;;11.69;96.99;100361.75;5033962;28;20054;-60
2022/11/09 09:22:31;;;;;;;9.85;3.13;;;;;;;11.74;96.99;100358.81;5033695;28;20119;-60
2022/11/09 09:24:58;;;;;;;6.85;4.05;;;;;;;11.80;96.60;100359.25;5032942;28;20059;-60
2022/11/09 09:27:25;;;;;;;10.35;4.43;;;;;;;11.82;96.93;100360.00;5032323;28;20052;-59
2022/11/09 09:29:52;;;;;;;6.97;4.00;;;;;;;11.87;97.12;100354.41;5029270;28;20097;-60
2022/11/09 09:32:20;;;;;;;5.28;3.67;;;;;;;11.95;96.57;100352.09;5032942;28;20128;-61
2022/11/09 09:34:47;;;;;;;6.82;4.05;;;;;;;11.98;97.46;100372.13;5036502;28;20140;-58
2022/11/09 09:37:15;;;;;;;5.38;3.42;;;;;;;11.98;97.60;100366.84;5035659;28;20172;-59
2022/11/09 09:39:42;;;;;;;6.40;3.58;;;;;;;12.09;96.60;100377.53;5034744;28;20055;-61
2022/11/09 09:42:23;;;;;;;7.53;4.00;;;;;;;12.13;96.43;100377.22;5045828;28;20076;-59
2022/11/09 09:45:05;;;;;;;7.97;4.20;;;;;;;12.09;97.10;100373.09;5023108;28;20136;-60
2022/11/09 09:47:55;;;;;;;6.22;3.95;;;;;;;12.10;96.78;100381.84;5021530;28;20080;-60
2022/11/09 09:50:26;;;;;;;8.18;4.25;;;;;;;12.15;95.93;100393.75;5039848;28;20413;-60
2022/11/09 09:53:00;;;;;;;6.97;3.30;;;;;;;12.20;95.94;100390.81;5019213;28;20429;-60
2022/11/09 09:55:54;;;;;;;4.80;3.70;;;;;;;12.22;95.77;100381.00;5021234;28;20049;-59
2022/11/09 09:58:31;;;;;;;7.38;3.97;;;;;;;12.22;95.67;100380.16;5020830;28;20148;-60
2022/11/09 10:01:18;;;;;;;4.55;3.25;;;;;;;12.22;95.69;100382.81;5028516;28;20072;-60
2022/11/09 10:03:47;;;;;;;5.07;3.53;;;;;;;12.24;95.72;100386.16;5036058;28;20053;-60
2022/11/09 10:06:37;;;;;;;6.57;3.92;;;;;;;12.33;94.79;100391.63;5034809;28;20049;-60
2022/11/09 10:09:21;;;;;;;7.75;3.80;;;;;;;12.25;95.43;100386.06;5018106;28;20073;-59
2022/11/09 10:12:06;;;;;;;5.70;3.08;;;;;;;12.30;95.46;100393.69;5037394;28;20542;-60
2022/11/09 10:14:49;;;;;;;6.00;3.47;;;;;;;12.25;96.38;100394.00;5032775;28;21655;-60
2022/11/09 10:17:24;;;;;;;6.10;3.58;;;;;;;12.25;96.39;100403.69;5033019;28;20060;-60
2022/11/09 10:20:01;;;;;;;6.95;4.13;;;;;;;12.29;96.21;100394.59;5039349;28;20144;-61
2022/11/09 10:23:09;;;;;;;8.23;3.97;;;;;;;12.32;96.38;100410.25;5024281;28;20143;-60
2022/11/09 10:25:37;;;;;;;5.75;3.47;;;;;;;12.27;96.10;100405.28;5012120;28;20064;-60
2022/11/09 10:28:27;;;;;;;7.63;3.67;;;;;;;12.28;96.34;100399.03;5039484;28;20057;-60
2022/11/09 10:31:18;;;;;;;6.85;3.50;;;;;;;12.27;96.49;100389.44;5034472;28;20083;-60
2022/11/09 10:33:48;;;;;;;9.88;3.63;;;;;;;12.28;96.81;100387.63;5033812;28;20046;-60
2022/11/09 10:36:31;;;;;;;5.30;3.90;;;;;;;12.34;96.57;100382.78;5020576;28;20216;-59
2022/11/09 10:39:00;;;;;;;7.32;3.47;;;;;;;12.37;96.86;100377.28;5020847;28;20156;-59
2022/11/09 10:41:31;;;;;;;7.28;3.40;;;;;;;12.40;96.91;100376.22;5035012;28;20140;-61
2022/11/09 10:43:58;;;;;;;9.63;4.20;;;;;;;12.46;96.07;100369.66;5017574;28;20059;-61
2022/11/09 10:46:26;;;;;;;4.80;3.20;;;;;;;12.57;96.01;100364.47;5044630;28;20064;-61
2022/11/09 10:48:54;;;;;;;7.68;3.88;;;;;;;12.83;95.19;100373.16;5043656;28;20061;-60
2022/11/09 10:51:30;;;;;;;5.95;3.70;;;;;;;13.13;93.95;100359.50;5019574;28;20513;-58
2022/11/09 10:54:21;;;;;;;4.68;2.92;;;;;;;13.37;91.16;100352.44;5020646;28;20053;-59
2022/11/09 10:57:01;;;;;;;5.82;3.63;;;;;;;13.47;90.43;100352.59;5037782;28;20055;-60
2022/11/09 10:59:41;;;;;;;6.30;3.25;;;;;;;13.56;90.42;100340.47;5017956;28;20056;-59
2022/11/09 11:02:31;;;;;;;5.70;3.17;;;;;;;13.80;89.63;100353.63;5023515;28;20056;-60
2022/11/09 11:05:04;;;;;;;6.25;2.67;;;;;;;13.87;88.62;100341.63;5024223;28;20054;-60
2022/11/09 11:07:35;;;;;;;8.45;3.35;;;;;;;13.87;88.65;100326.59;5030356;28;20133;-59
2022/11/09 11:10:14;;;;;;;9.70;3.15;;;;;;;14.15;88.25;100349.09;5042059;28;20478;-61
2022/11/09 11:12:42;;;;;;;7.43;3.10;;;;;;;14.33;86.34;100335.38;5047808;28;20405;-60
2022/11/09 11:15:27;;;;;;;5.13;3.13;;;;;;;14.53;84.87;100347.91;5023961;28;20063;-62
2022/11/09 11:18:01;;;;;;;6.00;3.45;;;;;;;14.79;83.44;100348.47;5013345;28;20051;-60
2022/11/09 11:20:36;;;;;;;8.93;3.00;;;;;;;15.06;82.71;100340.06;5021018;28;20056;-59
2022/11/09 11:23:12;;;;;;;3.75;2.33;;;;;;;15.29;81.91;100343.47;5029052;28;20049;-59
2022/11/09 11:25:54;;;;;;;5.38;3.30;;;;;;;15.55;80.26;100337.81;5033902;28;20059;-61
2022/11/09 11:28:36;;;;;;;7.68;2.60;;;;;;;15.69;79.12;100327.72;5027887;28;20069;-60
2022/11/09 11:31:06;;;;;;;3.92;2.63;;;;;;;15.89;78.59;100341.09;5030319;28;20045;-60
2022/11/09 11:33:34;;;;;;;4.85;2.92;;;;;;;16.13;77.75;100335.50;5028218;28;20114;-60
2022/11/09 11:36:11;;;;;;;8.95;3.03;;;;;;;16.14;76.05;100342.50;5026361;28;20148;-60
2022/11/09 11:38:59;;;;;;;6.45;2.33;;;;;;;15.98;76.55;100331.50;5015999;28;20060;-60
2022/11/09 11:42:07;;;;;;;5.40;3.00;;;;;;;16.09;75.78;100336.75;5039337;28;20079;-60
2022/11/09 11:44:51;;;;;;;4.38;2.65;;;;;;;16.20;75.51;100334.81;5023876;28;20137;-60
2022/11/09 11:47:55;;;;;;;4.18;3.08;;;;;;;17.02;74.10;100323.19;5041166;28;20574;-60
2022/11/09 11:50:29;;;;;;;4.60;2.20;;;;;;;17.41;70.01;100316.00;5043366;28;20458;-60
2022/11/09 11:53:15;;;;;;;8.13;3.43;;;;;;;17.56;69.99;100319.09;5026480;28;20155;-60
2022/11/09 11:56:16;;;;;;;4.93;2.17;;;;;;;18.01;67.49;100309.59;5039644;28;20458;-59
2022/11/09 11:59:06;;;;;;;4.38;2.45;;;;;;;18.31;66.17;100311.97;5035988;28;20063;-59
2022/11/09 12:01:39;;;;;;;3.40;2.33;;;;;;;18.24;66.77;100318.91;5034385;28;20143;-60
2022/11/09 12:04:18;;;;;;;9.25;2.38;;;;;;;17.90;66.34;100311.44;5041996;28;20457;-59
2022/11/09 12:07:16;;;;;;;8.52;2.35;;;;;;;17.79;67.75;100298.31;5032089;28;20049;-59
2022/11/09 12:09:46;;;;;;;7.00;2.10;;;;;;;18.10;67.45;100306.03;5038352;28;20084;-60
2022/11/09 12:12:39;;;;;;;3.60;2.58;;;;;;;18.39;66.56;100300.59;5034359;28;20060;-59
2022/11/09 12:15:18;;;;;;;3.83;2.10;;;;;;;18.56;64.95;100307.78;5021699;28;20528;-60
2022/11/09 12:18:22;;;;;;;4.22;2.42;;;;;;;18.79;64.86;100297.56;5017034;22;20150;-64
2022/11/09 12:20:57;;;;;;;5.28;2.40;;;;;;;18.95;63.36;100302.22;4949064;28;20509;-63
2022/11/09 12:23:40;;;;;;;3.67;2.35;;;;;;;19.17;62.53;100303.56;4960043;28;20163;-64
2022/11/09 12:26:28;;;;;;;5.53;2.70;;;;;;;19.21;63.00;100299.63;4942850;28;20044;-64
2022/11/09 12:29:07;;;;;;;4.30;2.45;;;;;;;18.75;63.51;100300.69;4938375;28;20052;-63
2022/11/09 12:31:47;;;;;;;3.38;2.30;;;;;;;18.30;65.70;100307.66;4955957;28;20118;-63
2022/11/09 12:34:38;;;;;;;6.68;2.83;;;;;;;18.32;65.84;100302.16;4959071;28;20226;-63
2022/11/09 12:37:13;;;;;;;3.65;2.05;;;;;;;18.51;66.22;100306.53;4939951;28;20414;-63
2022/11/09 12:39:46;;;;;;;3.75;2.17;;;;;;;19.09;65.40;100298.16;4938460;29;20051;-63
2022/11/09 12:42:28;;;;;;;2.85;1.90;;;;;;;19.57;61.63;100308.41;4934723;28;20059;-63
2022/11/09 12:45:13;;;;;;;7.10;2.25;;;;;;;19.53;62.50;100316.88;4939056;28;20159;-63
2022/11/09 12:47:41;;;;;;;;;;;;;;;19.52;61.09;100318.72;4929323;28;20048;-63
2022/11/09 12:50:17;;;;;;;4.30;1.90;;;;;;;19.32;61.06;100317.22;4965336;28;19931;-62
2022/11/09 12:52:47;;;;;;;8.13;1.98;;;;;;;19.17;61.19;100323.09;4934379;28;20051;-62
2022/11/09 12:55:17;;;;;;;3.65;1.83;;;;;;;19.21;62.39;100328.97;5017436;28;20056;-63
2022/11/09 12:57:45;;;;;;;3.10;2.03;;;;;;;18.92;61.74;100319.38;4935176;28;20143;-64
2022/11/09 13:00:34;;;;;;;2.83;1.85;;;;;;;18.84;62.50;100321.13;4930976;29;20073;-63
2022/11/09 13:03:04;;;;;;;3.05;1.50;;;;;;;19.02;63.00;100311.28;4934208;28;20075;-63
2022/11/09 13:05:34;;;;;;;3.42;1.83;;;;;;;19.48;61.96;100320.00;5021544;28;20051;-63
2022/11/09 13:08:06;;;;;;;2.55;1.42;;;;;;;19.28;61.89;100313.19;4929914;28;20063;-63
2022/11/09 13:10:36;;;;;;;3.75;1.85;;;;;;;19.49;61.09;100303.00;4936650;29;20126;-63
2022/11/09 13:13:14;;;;;;;4.20;2.17;;;;;;;19.40;60.53;100307.44;4921707;29;20154;-63
2022/11/09 13:16:04;;;;;;;4.88;1.52;;;;;;;18.92;62.00;100306.03;4936758;28;20078;-63
2022/11/09 13:18:31;;;;;;;5.63;1.67;;;;;;;18.27;64.04;100312.44;4939849;28;20538;-62
2022/11/09 13:21:21;;;;;;;7.03;1.98;;;;;;;18.11;64.77;100311.25;4938409;29;20063;-62
2022/11/09 13:23:50;;;;;;;3.08;1.90;;;;;;;17.98;65.50;100310.72;4941131;28;20528;-62
2022/11/09 13:26:37;;;;;;;2.63;1.65;;;;;;;17.80;66.27;100300.00;4959100;28;20127;-62
2022/11/09 13:29:27;;;;;;;3.42;1.70;;;;;;;17.47;65.86;100311.94;4973727;28;20071;-63
2022/11/09 13:31:59;;;;;;;5.05;2.10;;;;;;;17.21;67.00;100314.34;4965743;28;20579;-64
2022/11/09 13:34:41;;;;;;;3.65;1.48;;;;;;;16.95;68.47;100309.59;4970648;28;20051;-63
2022/11/09 13:37:39;;;;;;;6.18;1.85;;;;;;;16.98;69.28;100321.78;4935684;28;20051;-63
2022/11/09 13:40:31;;;;;;;2.45;1.60;;;;;;;16.93;69.17;100327.50;4928027;28;20052;-62
2022/11/09 13:43:01;;;;;;;4.40;2.28;;;;;;;16.67;69.32;100316.53;4958264;28;20148;-62
2022/11/09 13:45:34;;;;;;;2.00;1.50;;;;;;;16.47;70.33;100325.41;4942824;28;20594;-62
2022/11/09 13:48:03;;;;;;;2.22;1.27;;;;;;;16.41;71.34;100325.97;4930865;28;20070;-62
2022/11/09 13:50:32;;;;;;;2.95;1.83;;;;;;;16.29;70.68;100332.34;4978935;28;20125;-62
2022/11/09 13:53:00;;;;;;;2.65;1.33;;;;;;;16.06;72.04;100326.38;4941121;28;20706;-63
2022/11/09 13:55:32;;;;;;;5.70;2.22;;;;;;;16.06;72.62;100334.34;4947970;28;20060;-62
2022/11/09 13:58:04;;;;;;;5.97;2.00;;;;;;;15.99;73.00;100318.13;4937032;28;20057;-63
2022/11/09 14:00:31;;;;;;;4.80;2.05;;;;;;;15.97;73.00;100324.53;4924122;28;20504;-63
2022/11/09 14:03:12;;;;;;;3.97;1.85;;;;;;;15.86;73.74;100320.97;4935301;28;20421;-63
2022/11/09 14:05:40;;;;;;;3.63;1.60;;;;;;;15.83;74.03;100323.06;4930747;28;20138;-63
2022/11/09 14:08:18;;;;;;;3.78;1.45;;;;;;;15.85;74.27;100326.41;4942004;28;20082;-63
2022/11/09 14:10:54;;;;;;;4.55;1.90;;;;;;;15.84;73.93;100320.25;4949506;28;20052;-63
2022/11/09 14:13:55;;;;;;;4.78;1.70;;;;;;;15.69;74.70;100318.94;4928742;28;20603;-63
2022/11/09 14:16:31;;;;;;;3.17;1.92;;;;;;;15.66;75.00;100321.84;4935085;28;20136;-63
2022/11/09 14:19:13;;;;;;;5.18;1.73;;;;;;;15.65;75.03;100323.66;4942143;28;20082;-63
2022/11/09 14:21:49;;;;;;;2.97;1.90;;;;;;;15.61;75.50;100334.63;4930987;28;20068;-63
2022/11/09 14:24:18;;;;;;;6.10;2.20;;;;;;;15.54;75.40;100336.13;4974520;28;20144;-62
2022/11/09 14:27:13;;;;;;;5.60;2.13;;;;;;;15.42;76.14;100335.34;4925993;28;20054;-63
2022/11/09 14:29:58;;;;;;;4.45;2.28;;;;;;;15.47;76.31;100329.66;4922459;28;20419;-63
2022/11/09 14:32:35;;;;;;;4.77;2.17;;;;;;;15.43;76.20;100326.41;4975470;28;20144;-63
2022/11/09 14:35:35;;;;;;;5.00;2.33;;;;;;;15.47;76.15;100327.81;4928827;28;20071;-64
2022/11/09 14:38:21;;;;;;;7.65;3.17;;;;;;;15.42;76.15;100330.88;4960697;28;20631;-64
2022/11/09 14:40:51;;;;;;;5.63;3.33;;;;;;;15.36;76.57;100341.16;4940530;28;20050;-63
2022/11/09 14:52:12;;;;;;;4.70;2.80;;;;;;;15.28;76.79;100339.13;4936521;28;20532;-63
2022/11/09 16:37:02;;;;;;;5.78;2.75;;;;;;;13.40;89.55;100375.16;4920638;28;19927;-62
2022/11/09 16:39:31;;;;;;;5.63;2.70;;;;;;;13.39;89.74;100378.75;4948520;28;20046;-61
2022/11/09 16:42:00;;;;;;;6.70;2.67;;;;;;;13.36;89.17;100377.19;4918913;28;20056;-63
2022/11/09 16:44:32;;;;;;;5.18;2.90;;;;;;;13.27;90.59;100383.16;4916008;28;20083;-63
2022/11/09 16:47:02;;;;;;;4.07;2.78;;;;;;;13.21;90.41;100385.38;4911615;28;20056;-63
2022/11/09 16:49:30;;;;;;;6.22;3.25;;;;;;;13.25;91.02;100386.88;4915902;28;20078;-63
2022/11/09 16:51:57;;;;;;;6.72;3.22;;;;;;;13.18;90.39;100386.44;4939413;28;20089;-63
2022/11/09 16:54:24;;;;;;;4.50;3.50;;;;;;;13.16;90.33;100373.34;4934625;28;20056;-63
2022/11/09 16:56:53;;;;;;;5.38;3.33;;;;;;;13.16;90.90;100391.00;4935991;28;20063;-63
2022/11/09 16:59:21;;;;;;;5.03;3.38;;;;;;;13.15;91.04;100386.69;4925002;28;20052;-63
2022/11/09 17:01:53;;;;;;;7.75;3.08;;;;;;;13.16;91.42;100394.50;4946102;28;20514;-63
2022/11/09 17:04:20;;;;;;;5.68;3.67;;;;;;;13.10;91.43;100394.09;4982546;28;20054;-62
2022/11/09 17:06:49;;;;;;;9.68;3.70;;;;;;;13.08;91.79;100388.09;4937243;28;20507;-62
2022/11/09 17:09:17;;;;;;;6.82;4.50;;;;;;;13.04;91.13;100387.47;4940171;28;20365;-63
2022/11/09 17:11:44;;;;;;;5.45;3.72;;;;;;;13.03;92.13;100388.41;4928091;28;20060;-63
2022/11/09 17:14:11;;;;;;;4.93;3.38;;;;;;;13.05;92.08;100390.94;4920644;28;20052;-61
2022/11/09 17:16:40;;;;;;;5.45;3.75;;;;;;;13.04;91.89;100386.63;4933576;28;20131;-63
2022/11/09 17:19:08;;;;;;;6.82;4.00;;;;;;;12.99;92.37;100399.31;4925684;28;20146;-63
2022/11/09 17:21:35;;;;;;;6.25;3.92;;;;;;;12.95;92.59;100398.69;4940013;28;20056;-63
2022/11/09 17:24:05;;;;;;;9.27;4.40;;;;;;;12.87;93.73;100398.41;4929683;28;20060;-63
2022/11/09 17:26:32;;;;;;;5.80;3.65;;;;;;;12.83;94.12;100396.94;4925448;28;20178;-62
2022/11/09 17:28:59;;;;;;;7.85;4.00;;;;;;;12.81;94.30;100396.22;4929457;28;20047;-63
2022/11/09 17:31:26;;;;;;;6.68;3.97;;;;;;;12.83;93.68;100396.94;4928406;28;20065;-63
2022/11/09 17:33:55;;;;;;;6.38;4.13;;;;;;;12.82;93.48;100405.81;4937238;28;20059;-62
2022/11/09 17:36:27;;;;;;;9.05;4.78;;;;;;;12.74;94.12;100398.44;4940318;28;20074;-64
2022/11/09 17:39:14;;;;;;;6.18;4.13;;;;;;;12.69;93.95;100405.84;4926360;28;20078;-64
2022/11/09 17:41:41;;;;;;;7.63;4.35;;;;;;;12.61;94.51;100403.75;4930296;28;20522;-64
2022/11/09 20:14:03;;;;;;;5.57;3.67;;;;;;;12.44;89.67;100551.13;4922644;28;20086;-62
2022/11/09 20:16:31;;;;;;;8.52;4.18;;;;;;;12.41;90.14;100547.72;4935216;28;20599;-64
2022/11/09 20:19:24;;;;;;;7.45;4.20;;;;;;;12.38;90.66;100555.88;4934953;28;20051;-61
2022/11/09 23:48:13;;;;;;;4.38;1.30;;;;;;;11.81;88.91;100724.06;4928602;28;20059;-63
2022/11/09 23:50:41;;;;;;;4.28;1.30;;;;;;;11.75;87.04;100724.41;4960896;28;20418;-66
2022/11/09 23:53:10;;;;;;;6.05;1.55;;;;;;;11.81;86.02;100724.06;4920789;28;20051;-66
2022/11/09 23:55:37;;;;;;;5.90;1.30;;;;;;;11.80;85.80;100727.66;4925885;28;20175;-64
2022/11/09 23:58:06;;;;;;;5.45;1.75;;;;;;;11.81;83.66;100724.91;4933301;28;20040;-63
